sensor_id;sensor_type;location;lat;lon;timestamp;P1;durP1;ratioP1;P2;durP2;ratioP2
15764;SDS011;7983;50.744;7.086;2024-01-11T00:02:08;10.67;;;6.50;;
15764;SDS011;7983;50.744;7.086;2024-01-11T00:04:34;12.23;;;6.53;;
15764;SDS011;7983;50.744;7.086;2024-01-11T00:07:00;11.57;;;6.70;;
15764;SDS011;7983;50.744;7.086;2024-01-11T00:09:25;12.23;;;7.20;;
15764;SDS011;7983;50.744;7.086;2024-01-11T00:11:53;11.43;;;7.33;;
15764;SDS011;7983;50.744;7.086;2024-01-11T00:14:19;11.67;;;7.27;;
15764;SDS011;7983;50.744;7.086;2024-01-11T00:16:47;12.87;;;7.67;;
15764;SDS011;7983;50.744;7.086;2024-01-11T00:19:15;12.60;;;7.47;;
15764;SDS011;7983;50.744;7.086;2024-01-11T00:21:40;12.03;;;7.33;;
15764;SDS011;7983;50.744;7.086;2024-01-11T00:24:06;12.53;;;7.27;;
15764;SDS011;7983;50.744;7.086;2024-01-11T00:26:31;14.13;;;7.87;;
15764;SDS011;7983;50.744;7.086;2024-01-11T00:28:59;14.23;;;7.57;;
15764;SDS011;7983;50.744;7.086;2024-01-11T00:31:25;12.47;;;7.20;;
15764;SDS011;7983;50.744;7.086;2024-01-11T00:33:52;14.97;;;7.90;;
15764;SDS011;7983;50.744;7.086;2024-01-11T00:36:18;14.80;;;8.10;;
15764;SDS011;7983;50.744;7.086;2024-01-11T00:38:48;11.63;;;7.03;;
15764;SDS011;7983;50.744;7.086;2024-01-11T00:41:14;11.77;;;7.17;;
15764;SDS011;7983;50.744;7.086;2024-01-11T00:43:40;12.53;;;7.93;;
15764;SDS011;7983;50.744;7.086;2024-01-11T00:46:05;13.20;;;8.50;;
15764;SDS011;7983;50.744;7.086;2024-01-11T00:48:31;12.23;;;7.30;;
15764;SDS011;7983;50.744;7.086;2024-01-11T00:50:57;12.30;;;7.23;;
15764;SDS011;7983;50.744;7.086;2024-01-11T00:53:22;11.80;;;7.27;;
15764;SDS011;7983;50.744;7.086;2024-01-11T00:55:48;10.57;;;6.53;;
15764;SDS011;7983;50.744;7.086;2024-01-11T00:58:13;11.07;;;7.03;;
15764;SDS011;7983;50.744;7.086;2024-01-11T01:00:39;11.10;;;6.57;;
15764;SDS011;7983;50.744;7.086;2024-01-11T01:03:04;12.90;;;7.43;;
15764;SDS011;7983;50.744;7.086;2024-01-11T01:05:32;12.67;;;7.30;;
15764;SDS011;7983;50.744;7.086;2024-01-11T01:07:58;11.23;;;6.90;;
15764;SDS011;7983;50.744;7.086;2024-01-11T01:10:26;10.47;;;6.97;;
15764;SDS011;7983;50.744;7.086;2024-01-11T01:12:51;10.87;;;6.40;;
15764;SDS011;7983;50.744;7.086;2024-01-11T01:15:22;11.13;;;6.60;;
15764;SDS011;7983;50.744;7.086;2024-01-11T01:17:47;12.83;;;7.33;;
15764;SDS011;7983;50.744;7.086;2024-01-11T01:20:17;12.43;;;7.57;;
15764;SDS011;7983;50.744;7.086;2024-01-11T01:22:45;12.37;;;7.30;;
15764;SDS011;7983;50.744;7.086;2024-01-11T01:25:11;13.00;;;7.10;;
15764;SDS011;7983;50.744;7.086;2024-01-11T01:27:37;12.07;;;6.70;;
15764;SDS011;7983;50.744;7.086;2024-01-11T01:30:05;11.13;;;6.90;;
15764;SDS011;7983;50.744;7.086;2024-01-11T01:32:31;11.27;;;7.10;;
15764;SDS011;7983;50.744;7.086;2024-01-11T01:34:57;11.07;;;6.77;;
15764;SDS011;7983;50.744;7.086;2024-01-11T01:37:25;12.00;;;6.57;;
15764;SDS011;7983;50.744;7.086;2024-01-11T01:39:51;11.10;;;6.40;;
15764;SDS011;7983;50.744;7.086;2024-01-11T01:42:21;11.97;;;6.80;;
15764;SDS011;7983;50.744;7.086;2024-01-11T01:44:49;10.17;;;6.47;;
15764;SDS011;7983;50.744;7.086;2024-01-11T01:47:15;11.80;;;6.87;;
15764;SDS011;7983;50.744;7.086;2024-01-11T01:49:42;10.63;;;6.33;;
15764;SDS011;7983;50.744;7.086;2024-01-11T01:52:09;9.90;;;6.63;;
15764;SDS011;7983;50.744;7.086;2024-01-11T01:54:35;11.63;;;7.00;;
15764;SDS011;7983;50.744;7.086;2024-01-11T01:57:02;10.43;;;6.50;;
15764;SDS011;7983;50.744;7.086;2024-01-11T01:59:28;11.37;;;7.40;;
15764;SDS011;7983;50.744;7.086;2024-01-11T02:01:58;13.00;;;7.53;;
15764;SDS011;7983;50.744;7.086;2024-01-11T02:04:25;13.77;;;8.13;;
15764;SDS011;7983;50.744;7.086;2024-01-11T02:06:52;11.97;;;7.23;;
15764;SDS011;7983;50.744;7.086;2024-01-11T02:09:19;12.20;;;7.13;;
15764;SDS011;7983;50.744;7.086;2024-01-11T02:11:47;11.03;;;6.90;;
15764;SDS011;7983;50.744;7.086;2024-01-11T02:14:13;10.10;;;6.67;;
15764;SDS011;7983;50.744;7.086;2024-01-11T02:16:39;12.60;;;6.63;;
15764;SDS011;7983;50.744;7.086;2024-01-11T02:19:07;12.70;;;7.10;;
15764;SDS011;7983;50.744;7.086;2024-01-11T02:21:45;12.97;;;6.83;;
15764;SDS011;7983;50.744;7.086;2024-01-11T02:24:12;8.80;;;5.87;;
15764;SDS011;7983;50.744;7.086;2024-01-11T02:26:57;9.00;;;5.60;;
15764;SDS011;7983;50.744;7.086;2024-01-11T02:29:24;9.67;;;5.63;;
15764;SDS011;7983;50.744;7.086;2024-01-11T02:31:50;9.00;;;5.80;;
15764;SDS011;7983;50.744;7.086;2024-01-11T02:34:19;9.90;;;5.93;;
15764;SDS011;7983;50.744;7.086;2024-01-11T02:36:45;11.17;;;6.53;;
15764;SDS011;7983;50.744;7.086;2024-01-11T02:39:13;10.50;;;6.13;;
15764;SDS011;7983;50.744;7.086;2024-01-11T02:41:43;9.40;;;6.40;;
15764;SDS011;7983;50.744;7.086;2024-01-11T02:44:09;10.87;;;5.97;;
15764;SDS011;7983;50.744;7.086;2024-01-11T02:46:35;11.63;;;6.07;;
15764;SDS011;7983;50.744;7.086;2024-01-11T02:49:00;10.33;;;6.33;;
15764;SDS011;7983;50.744;7.086;2024-01-11T02:51:28;10.23;;;5.80;;
15764;SDS011;7983;50.744;7.086;2024-01-11T02:53:54;10.23;;;6.00;;
15764;SDS011;7983;50.744;7.086;2024-01-11T02:56:19;8.63;;;4.93;;
15764;SDS011;7983;50.744;7.086;2024-01-11T02:58:45;9.80;;;5.97;;
15764;SDS011;7983;50.744;7.086;2024-01-11T03:01:10;10.17;;;5.70;;
15764;SDS011;7983;50.744;7.086;2024-01-11T03:03:36;9.77;;;6.00;;
15764;SDS011;7983;50.744;7.086;2024-01-11T03:06:02;8.27;;;5.67;;
15764;SDS011;7983;50.744;7.086;2024-01-11T03:08:28;9.03;;;5.83;;
15764;SDS011;7983;50.744;7.086;2024-01-11T03:10:56;9.63;;;5.73;;
15764;SDS011;7983;50.744;7.086;2024-01-11T03:13:22;10.07;;;6.27;;
15764;SDS011;7983;50.744;7.086;2024-01-11T03:15:48;8.70;;;5.77;;
15764;SDS011;7983;50.744;7.086;2024-01-11T03:18:16;11.50;;;5.90;;
15764;SDS011;7983;50.744;7.086;2024-01-11T03:20:42;11.90;;;6.53;;
15764;SDS011;7983;50.744;7.086;2024-01-11T03:23:07;11.73;;;6.70;;
15764;SDS011;7983;50.744;7.086;2024-01-11T03:25:35;10.57;;;6.10;;
15764;SDS011;7983;50.744;7.086;2024-01-11T03:28:01;9.93;;;5.97;;
15764;SDS011;7983;50.744;7.086;2024-01-11T03:30:31;9.60;;;5.73;;
15764;SDS011;7983;50.744;7.086;2024-01-11T03:32:59;10.43;;;6.30;;
15764;SDS011;7983;50.744;7.086;2024-01-11T03:35:29;11.23;;;6.37;;
15764;SDS011;7983;50.744;7.086;2024-01-11T03:37:55;12.67;;;6.43;;
15764;SDS011;7983;50.744;7.086;2024-01-11T03:40:21;10.87;;;6.40;;
15764;SDS011;7983;50.744;7.086;2024-01-11T03:42:46;11.03;;;6.73;;
15764;SDS011;7983;50.744;7.086;2024-01-11T03:45:12;12.37;;;6.97;;
15764;SDS011;7983;50.744;7.086;2024-01-11T03:47:40;10.47;;;6.10;;
15764;SDS011;7983;50.744;7.086;2024-01-11T03:50:09;12.73;;;6.47;;
15764;SDS011;7983;50.744;7.086;2024-01-11T03:52:40;10.70;;;6.83;;
15764;SDS011;7983;50.744;7.086;2024-01-11T03:55:08;10.30;;;6.47;;
15764;SDS011;7983;50.744;7.086;2024-01-11T03:57:36;9.87;;;6.37;;
15764;SDS011;7983;50.744;7.086;2024-01-11T04:00:01;12.63;;;6.53;;
15764;SDS011;7983;50.744;7.086;2024-01-11T04:02:33;9.73;;;6.17;;
15764;SDS011;7983;50.744;7.086;2024-01-11T04:05:01;11.40;;;6.93;;
15764;SDS011;7983;50.744;7.086;2024-01-11T04:07:29;10.27;;;5.77;;
15764;SDS011;7983;50.744;7.086;2024-01-11T04:09:54;10.40;;;5.87;;
15764;SDS011;7983;50.744;7.086;2024-01-11T04:12:20;9.83;;;5.73;;
15764;SDS011;7983;50.744;7.086;2024-01-11T04:14:45;8.80;;;5.40;;
15764;SDS011;7983;50.744;7.086;2024-01-11T04:17:11;9.60;;;5.83;;
15764;SDS011;7983;50.744;7.086;2024-01-11T04:19:37;9.83;;;6.00;;
15764;SDS011;7983;50.744;7.086;2024-01-11T04:22:05;11.77;;;6.70;;
15764;SDS011;7983;50.744;7.086;2024-01-11T04:24:30;11.30;;;6.93;;
15764;SDS011;7983;50.744;7.086;2024-01-11T04:26:56;10.23;;;6.23;;
15764;SDS011;7983;50.744;7.086;2024-01-11T04:29:21;11.13;;;7.30;;
15764;SDS011;7983;50.744;7.086;2024-01-11T04:31:49;11.13;;;6.77;;
15764;SDS011;7983;50.744;7.086;2024-01-11T04:34:17;13.23;;;7.93;;
15764;SDS011;7983;50.744;7.086;2024-01-11T04:36:43;12.93;;;7.60;;
15764;SDS011;7983;50.744;7.086;2024-01-11T04:39:08;13.10;;;7.60;;
15764;SDS011;7983;50.744;7.086;2024-01-11T04:41:35;12.70;;;7.37;;
15764;SDS011;7983;50.744;7.086;2024-01-11T04:44:03;13.17;;;8.47;;
15764;SDS011;7983;50.744;7.086;2024-01-11T04:46:29;15.03;;;8.93;;
15764;SDS011;7983;50.744;7.086;2024-01-11T04:48:55;13.57;;;8.27;;
15764;SDS011;7983;50.744;7.086;2024-01-11T04:51:20;12.77;;;7.93;;
15764;SDS011;7983;50.744;7.086;2024-01-11T04:53:50;14.40;;;8.60;;
15764;SDS011;7983;50.744;7.086;2024-01-11T04:56:16;14.63;;;8.27;;
15764;SDS011;7983;50.744;7.086;2024-01-11T04:58:43;13.63;;;8.13;;
15764;SDS011;7983;50.744;7.086;2024-01-11T05:01:13;14.13;;;7.87;;
15764;SDS011;7983;50.744;7.086;2024-01-11T05:03:40;20.80;;;13.00;;
15764;SDS011;7983;50.744;7.086;2024-01-11T05:06:16;27.87;;;15.77;;
15764;SDS011;7983;50.744;7.086;2024-01-11T05:08:43;17.70;;;11.13;;
15764;SDS011;7983;50.744;7.086;2024-01-11T05:11:19;15.13;;;9.90;;
15764;SDS011;7983;50.744;7.086;2024-01-11T05:13:46;14.47;;;8.83;;
15764;SDS011;7983;50.744;7.086;2024-01-11T05:18:54;14.23;;;8.27;;
15764;SDS011;7983;50.744;7.086;2024-01-11T05:21:24;12.03;;;7.40;;
15764;SDS011;7983;50.744;7.086;2024-01-11T05:23:50;13.23;;;7.33;;
15764;SDS011;7983;50.744;7.086;2024-01-11T05:26:17;13.83;;;7.67;;
15764;SDS011;7983;50.744;7.086;2024-01-11T05:28:46;15.87;;;8.57;;
15764;SDS011;7983;50.744;7.086;2024-01-11T05:31:13;17.33;;;9.53;;
15764;SDS011;7983;50.744;7.086;2024-01-11T05:33:44;17.17;;;10.37;;
15764;SDS011;7983;50.744;7.086;2024-01-11T05:36:13;14.83;;;9.27;;
15764;SDS011;7983;50.744;7.086;2024-01-11T05:38:42;13.93;;;8.27;;
15764;SDS011;7983;50.744;7.086;2024-01-11T05:41:08;13.27;;;7.83;;
15764;SDS011;7983;50.744;7.086;2024-01-11T05:43:36;12.13;;;7.17;;
15764;SDS011;7983;50.744;7.086;2024-01-11T05:46:04;13.60;;;7.00;;
15764;SDS011;7983;50.744;7.086;2024-01-11T05:48:32;21.97;;;12.27;;
15764;SDS011;7983;50.744;7.086;2024-01-11T05:50:58;13.17;;;8.23;;
15764;SDS011;7983;50.744;7.086;2024-01-11T05:53:26;14.90;;;8.70;;
15764;SDS011;7983;50.744;7.086;2024-01-11T05:55:54;13.97;;;8.57;;
15764;SDS011;7983;50.744;7.086;2024-01-11T05:58:21;14.53;;;8.37;;
15764;SDS011;7983;50.744;7.086;2024-01-11T06:00:47;15.03;;;7.87;;
15764;SDS011;7983;50.744;7.086;2024-01-11T06:03:12;13.70;;;8.17;;
15764;SDS011;7983;50.744;7.086;2024-01-11T06:05:38;12.27;;;7.30;;
15764;SDS011;7983;50.744;7.086;2024-01-11T06:08:06;11.23;;;7.03;;
15764;SDS011;7983;50.744;7.086;2024-01-11T06:10:33;11.43;;;6.53;;
15764;SDS011;7983;50.744;7.086;2024-01-11T06:13:01;10.40;;;6.43;;
15764;SDS011;7983;50.744;7.086;2024-01-11T06:15:27;12.50;;;7.13;;
15764;SDS011;7983;50.744;7.086;2024-01-11T06:17:52;10.50;;;6.70;;
15764;SDS011;7983;50.744;7.086;2024-01-11T06:20:18;12.77;;;6.93;;
15764;SDS011;7983;50.744;7.086;2024-01-11T06:22:46;11.20;;;6.73;;
15764;SDS011;7983;50.744;7.086;2024-01-11T06:25:11;11.40;;;6.50;;
15764;SDS011;7983;50.744;7.086;2024-01-11T06:27:41;10.73;;;6.07;;
15764;SDS011;7983;50.744;7.086;2024-01-11T06:30:09;11.30;;;6.53;;
15764;SDS011;7983;50.744;7.086;2024-01-11T06:32:35;10.50;;;6.03;;
15764;SDS011;7983;50.744;7.086;2024-01-11T06:35:01;11.63;;;6.57;;
15764;SDS011;7983;50.744;7.086;2024-01-11T06:37:30;10.47;;;6.23;;
15764;SDS011;7983;50.744;7.086;2024-01-11T06:39:55;12.10;;;7.53;;
15764;SDS011;7983;50.744;7.086;2024-01-11T06:42:24;11.17;;;6.67;;
15764;SDS011;7983;50.744;7.086;2024-01-11T06:44:49;11.57;;;6.47;;
15764;SDS011;7983;50.744;7.086;2024-01-11T06:47:15;10.40;;;6.43;;
15764;SDS011;7983;50.744;7.086;2024-01-11T06:49:43;10.13;;;6.17;;
15764;SDS011;7983;50.744;7.086;2024-01-11T06:52:10;10.83;;;6.50;;
15764;SDS011;7983;50.744;7.086;2024-01-11T06:54:35;11.60;;;6.90;;
15764;SDS011;7983;50.744;7.086;2024-01-11T06:57:01;10.90;;;6.67;;
15764;SDS011;7983;50.744;7.086;2024-01-11T06:59:29;10.37;;;6.53;;
15764;SDS011;7983;50.744;7.086;2024-01-11T07:01:55;10.70;;;6.63;;
15764;SDS011;7983;50.744;7.086;2024-01-11T07:04:20;9.47;;;6.07;;
15764;SDS011;7983;50.744;7.086;2024-01-11T07:06:46;9.43;;;5.77;;
15764;SDS011;7983;50.744;7.086;2024-01-11T07:09:12;10.77;;;6.00;;
15764;SDS011;7983;50.744;7.086;2024-01-11T07:11:37;10.60;;;5.93;;
15764;SDS011;7983;50.744;7.086;2024-01-11T07:14:05;10.67;;;5.90;;
15764;SDS011;7983;50.744;7.086;2024-01-11T07:16:32;10.67;;;6.33;;
15764;SDS011;7983;50.744;7.086;2024-01-11T07:18:57;13.03;;;6.90;;
15764;SDS011;7983;50.744;7.086;2024-01-11T07:21:23;9.50;;;6.30;;
15764;SDS011;7983;50.744;7.086;2024-01-11T07:23:56;10.33;;;6.30;;
15764;SDS011;7983;50.744;7.086;2024-01-11T07:26:25;10.37;;;6.43;;
15764;SDS011;7983;50.744;7.086;2024-01-11T07:28:51;11.33;;;6.43;;
15764;SDS011;7983;50.744;7.086;2024-01-11T07:31:19;11.20;;;6.50;;
15764;SDS011;7983;50.744;7.086;2024-01-11T07:33:45;10.23;;;6.33;;
15764;SDS011;7983;50.744;7.086;2024-01-11T07:36:11;10.43;;;6.20;;
15764;SDS011;7983;50.744;7.086;2024-01-11T07:38:36;11.23;;;6.73;;
15764;SDS011;7983;50.744;7.086;2024-01-11T07:41:02;11.50;;;6.50;;
15764;SDS011;7983;50.744;7.086;2024-01-11T07:43:31;10.77;;;6.47;;
15764;SDS011;7983;50.744;7.086;2024-01-11T07:46:00;11.13;;;6.93;;
15764;SDS011;7983;50.744;7.086;2024-01-11T07:48:29;11.37;;;7.00;;
15764;SDS011;7983;50.744;7.086;2024-01-11T07:50:54;11.40;;;6.00;;
15764;SDS011;7983;50.744;7.086;2024-01-11T07:53:25;11.07;;;7.33;;
15764;SDS011;7983;50.744;7.086;2024-01-11T07:55:51;10.50;;;6.40;;
15764;SDS011;7983;50.744;7.086;2024-01-11T07:58:19;11.77;;;6.70;;
15764;SDS011;7983;50.744;7.086;2024-01-11T08:00:46;9.97;;;6.90;;
15764;SDS011;7983;50.744;7.086;2024-01-11T08:03:13;12.07;;;6.90;;
15764;SDS011;7983;50.744;7.086;2024-01-11T08:05:39;11.37;;;6.97;;
15764;SDS011;7983;50.744;7.086;2024-01-11T08:08:05;11.47;;;7.07;;
15764;SDS011;7983;50.744;7.086;2024-01-11T08:10:33;11.27;;;7.10;;
15764;SDS011;7983;50.744;7.086;2024-01-11T08:13:03;14.53;;;8.20;;
15764;SDS011;7983;50.744;7.086;2024-01-11T08:15:29;15.67;;;9.13;;
15764;SDS011;7983;50.744;7.086;2024-01-11T08:17:56;15.27;;;8.60;;
15764;SDS011;7983;50.744;7.086;2024-01-11T08:20:23;13.27;;;7.10;;
15764;SDS011;7983;50.744;7.086;2024-01-11T08:22:48;12.00;;;6.90;;
15764;SDS011;7983;50.744;7.086;2024-01-11T08:25:14;12.27;;;7.10;;
15764;SDS011;7983;50.744;7.086;2024-01-11T08:27:40;10.47;;;6.90;;
15764;SDS011;7983;50.744;7.086;2024-01-11T08:30:06;9.33;;;6.30;;
15764;SDS011;7983;50.744;7.086;2024-01-11T08:32:33;11.30;;;7.23;;
15764;SDS011;7983;50.744;7.086;2024-01-11T08:35:04;11.03;;;5.93;;
15764;SDS011;7983;50.744;7.086;2024-01-11T08:37:34;9.97;;;6.33;;
15764;SDS011;7983;50.744;7.086;2024-01-11T08:40:01;10.90;;;6.73;;
15764;SDS011;7983;50.744;7.086;2024-01-11T08:42:31;11.07;;;6.33;;
15764;SDS011;7983;50.744;7.086;2024-01-11T08:44:57;13.20;;;7.40;;
15764;SDS011;7983;50.744;7.086;2024-01-11T08:47:26;10.80;;;7.00;;
15764;SDS011;7983;50.744;7.086;2024-01-11T08:49:53;12.13;;;7.10;;
15764;SDS011;7983;50.744;7.086;2024-01-11T08:52:21;9.67;;;5.90;;
15764;SDS011;7983;50.744;7.086;2024-01-11T08:54:48;9.90;;;5.93;;
15764;SDS011;7983;50.744;7.086;2024-01-11T08:57:14;10.27;;;6.10;;
15764;SDS011;7983;50.744;7.086;2024-01-11T08:59:40;11.47;;;6.73;;
15764;SDS011;7983;50.744;7.086;2024-01-11T09:02:06;10.70;;;6.03;;
15764;SDS011;7983;50.744;7.086;2024-01-11T09:04:34;9.70;;;5.70;;
15764;SDS011;7983;50.744;7.086;2024-01-11T09:07:04;8.40;;;5.83;;
15764;SDS011;7983;50.744;7.086;2024-01-11T09:09:32;11.60;;;6.67;;
15764;SDS011;7983;50.744;7.086;2024-01-11T09:12:00;9.73;;;5.93;;
15764;SDS011;7983;50.744;7.086;2024-01-11T09:14:28;10.03;;;6.40;;
15764;SDS011;7983;50.744;7.086;2024-01-11T09:16:53;11.50;;;7.23;;
15764;SDS011;7983;50.744;7.086;2024-01-11T09:19:21;10.13;;;6.27;;
15764;SDS011;7983;50.744;7.086;2024-01-11T09:21:52;9.80;;;6.30;;
15764;SDS011;7983;50.744;7.086;2024-01-11T09:24:20;10.40;;;6.23;;
15764;SDS011;7983;50.744;7.086;2024-01-11T09:26:46;11.80;;;6.83;;
15764;SDS011;7983;50.744;7.086;2024-01-11T09:29:15;10.10;;;6.70;;
15764;SDS011;7983;50.744;7.086;2024-01-11T09:31:40;11.63;;;6.73;;
15764;SDS011;7983;50.744;7.086;2024-01-11T09:34:09;11.87;;;7.47;;
15764;SDS011;7983;50.744;7.086;2024-01-11T09:36:35;11.83;;;7.07;;
15764;SDS011;7983;50.744;7.086;2024-01-11T09:39:04;13.00;;;7.63;;
15764;SDS011;7983;50.744;7.086;2024-01-11T09:41:33;12.77;;;7.03;;
15764;SDS011;7983;50.744;7.086;2024-01-11T09:44:02;13.50;;;7.53;;
15764;SDS011;7983;50.744;7.086;2024-01-11T09:46:32;11.30;;;7.83;;
15764;SDS011;7983;50.744;7.086;2024-01-11T09:49:02;11.57;;;7.83;;
15764;SDS011;7983;50.744;7.086;2024-01-11T09:51:29;13.70;;;7.70;;
15764;SDS011;7983;50.744;7.086;2024-01-11T09:53:55;12.80;;;8.13;;
15764;SDS011;7983;50.744;7.086;2024-01-11T09:56:21;12.53;;;8.30;;
15764;SDS011;7983;50.744;7.086;2024-01-11T09:58:48;11.87;;;8.20;;
15764;SDS011;7983;50.744;7.086;2024-01-11T10:01:17;13.50;;;8.87;;
15764;SDS011;7983;50.744;7.086;2024-01-11T10:03:44;15.17;;;9.20;;
15764;SDS011;7983;50.744;7.086;2024-01-11T10:06:12;13.40;;;9.17;;
15764;SDS011;7983;50.744;7.086;2024-01-11T10:08:41;14.57;;;9.40;;
15764;SDS011;7983;50.744;7.086;2024-01-11T10:11:09;13.87;;;8.87;;
15764;SDS011;7983;50.744;7.086;2024-01-11T10:13:35;14.77;;;10.03;;
15764;SDS011;7983;50.744;7.086;2024-01-11T10:18:34;15.33;;;10.57;;
15764;SDS011;7983;50.744;7.086;2024-01-11T10:21:02;14.50;;;9.43;;
15764;SDS011;7983;50.744;7.086;2024-01-11T10:23:28;15.83;;;9.33;;
15764;SDS011;7983;50.744;7.086;2024-01-11T10:25:55;13.67;;;9.20;;
15764;SDS011;7983;50.744;7.086;2024-01-11T10:28:22;14.47;;;9.43;;
15764;SDS011;7983;50.744;7.086;2024-01-11T10:30:52;16.13;;;10.30;;
15764;SDS011;7983;50.744;7.086;2024-01-11T10:33:24;16.67;;;10.50;;
15764;SDS011;7983;50.744;7.086;2024-01-11T10:35:49;16.07;;;10.80;;
15764;SDS011;7983;50.744;7.086;2024-01-11T10:38:17;15.80;;;10.63;;
15764;SDS011;7983;50.744;7.086;2024-01-11T10:40:45;16.17;;;10.80;;
15764;SDS011;7983;50.744;7.086;2024-01-11T10:43:11;15.43;;;10.53;;
15764;SDS011;7983;50.744;7.086;2024-01-11T10:45:40;16.80;;;11.07;;
15764;SDS011;7983;50.744;7.086;2024-01-11T10:50:44;14.50;;;10.43;;
15764;SDS011;7983;50.744;7.086;2024-01-11T10:55:52;17.50;;;10.87;;
15764;SDS011;7983;50.744;7.086;2024-01-11T10:58:20;16.83;;;11.50;;
15764;SDS011;7983;50.744;7.086;2024-01-11T11:00:47;18.77;;;11.87;;
15764;SDS011;7983;50.744;7.086;2024-01-11T11:03:19;16.67;;;11.47;;
15764;SDS011;7983;50.744;7.086;2024-01-11T11:05:45;18.07;;;11.47;;
15764;SDS011;7983;50.744;7.086;2024-01-11T11:08:15;14.50;;;10.50;;
15764;SDS011;7983;50.744;7.086;2024-01-11T11:10:45;17.33;;;11.47;;
15764;SDS011;7983;50.744;7.086;2024-01-11T11:13:16;18.83;;;12.10;;
15764;SDS011;7983;50.744;7.086;2024-01-11T11:15:46;16.40;;;10.83;;
15764;SDS011;7983;50.744;7.086;2024-01-11T11:18:21;16.03;;;11.13;;
15764;SDS011;7983;50.744;7.086;2024-01-11T11:20:48;16.73;;;10.33;;
15764;SDS011;7983;50.744;7.086;2024-01-11T11:23:17;15.97;;;10.87;;
15764;SDS011;7983;50.744;7.086;2024-01-11T11:25:47;18.97;;;12.20;;
15764;SDS011;7983;50.744;7.086;2024-01-11T11:28:20;17.77;;;11.27;;
15764;SDS011;7983;50.744;7.086;2024-01-11T11:30:49;19.27;;;11.73;;
15764;SDS011;7983;50.744;7.086;2024-01-11T11:33:25;18.30;;;12.20;;
15764;SDS011;7983;50.744;7.086;2024-01-11T11:35:58;19.43;;;12.33;;
15764;SDS011;7983;50.744;7.086;2024-01-11T11:38:28;18.53;;;12.43;;
15764;SDS011;7983;50.744;7.086;2024-01-11T11:40:56;18.60;;;12.50;;
15764;SDS011;7983;50.744;7.086;2024-01-11T11:43:28;17.83;;;11.83;;
15764;SDS011;7983;50.744;7.086;2024-01-11T11:45:56;20.10;;;12.60;;
15764;SDS011;7983;50.744;7.086;2024-01-11T11:51:09;18.73;;;12.97;;
15764;SDS011;7983;50.744;7.086;2024-01-11T11:53:35;21.13;;;13.30;;
15764;SDS011;7983;50.744;7.086;2024-01-11T11:56:04;20.30;;;13.00;;
15764;SDS011;7983;50.744;7.086;2024-01-11T11:58:32;18.47;;;12.40;;
15764;SDS011;7983;50.744;7.086;2024-01-11T12:01:02;20.70;;;13.23;;
15764;SDS011;7983;50.744;7.086;2024-01-11T12:03:29;22.03;;;14.10;;
15764;SDS011;7983;50.744;7.086;2024-01-11T12:05:59;19.77;;;14.13;;
15764;SDS011;7983;50.744;7.086;2024-01-11T12:08:27;18.97;;;12.63;;
15764;SDS011;7983;50.744;7.086;2024-01-11T12:10:53;20.37;;;12.80;;
15764;SDS011;7983;50.744;7.086;2024-01-11T12:13:21;20.10;;;13.33;;
15764;SDS011;7983;50.744;7.086;2024-01-11T12:15:48;19.23;;;13.57;;
15764;SDS011;7983;50.744;7.086;2024-01-11T12:18:16;21.17;;;13.30;;
15764;SDS011;7983;50.744;7.086;2024-01-11T12:20:42;21.37;;;14.80;;
15764;SDS011;7983;50.744;7.086;2024-01-11T12:23:08;24.77;;;15.50;;
15764;SDS011;7983;50.744;7.086;2024-01-11T12:25:36;22.47;;;15.63;;
15764;SDS011;7983;50.744;7.086;2024-01-11T12:28:02;22.43;;;15.00;;
15764;SDS011;7983;50.744;7.086;2024-01-11T12:30:33;23.87;;;16.83;;
15764;SDS011;7983;50.744;7.086;2024-01-11T12:32:59;25.80;;;17.30;;
15764;SDS011;7983;50.744;7.086;2024-01-11T12:35:27;25.20;;;17.07;;
15764;SDS011;7983;50.744;7.086;2024-01-11T12:38:07;28.57;;;17.87;;
15764;SDS011;7983;50.744;7.086;2024-01-11T12:40:38;29.77;;;19.43;;
15764;SDS011;7983;50.744;7.086;2024-01-11T12:43:05;23.73;;;16.10;;
15764;SDS011;7983;50.744;7.086;2024-01-11T12:45:36;26.00;;;17.40;;
15764;SDS011;7983;50.744;7.086;2024-01-11T12:48:03;25.90;;;17.47;;
15764;SDS011;7983;50.744;7.086;2024-01-11T12:50:32;23.53;;;16.90;;
15764;SDS011;7983;50.744;7.086;2024-01-11T12:53:04;25.20;;;17.23;;
15764;SDS011;7983;50.744;7.086;2024-01-11T12:55:34;29.87;;;18.70;;
15764;SDS011;7983;50.744;7.086;2024-01-11T12:58:07;25.57;;;17.40;;
15764;SDS011;7983;50.744;7.086;2024-01-11T13:00:36;26.40;;;17.27;;
15764;SDS011;7983;50.744;7.086;2024-01-11T13:03:04;21.70;;;15.57;;
15764;SDS011;7983;50.744;7.086;2024-01-11T13:05:30;26.93;;;17.53;;
15764;SDS011;7983;50.744;7.086;2024-01-11T13:08:07;24.83;;;16.23;;
15764;SDS011;7983;50.744;7.086;2024-01-11T13:10:36;23.90;;;16.40;;
15764;SDS011;7983;50.744;7.086;2024-01-11T13:13:02;24.50;;;15.83;;
15764;SDS011;7983;50.744;7.086;2024-01-11T13:15:33;22.90;;;15.23;;
15764;SDS011;7983;50.744;7.086;2024-01-11T13:18:04;24.17;;;15.20;;
15764;SDS011;7983;50.744;7.086;2024-01-11T13:20:32;20.87;;;14.80;;
15764;SDS011;7983;50.744;7.086;2024-01-11T13:25:45;23.73;;;15.23;;
15764;SDS011;7983;50.744;7.086;2024-01-11T13:28:11;22.07;;;14.63;;
15764;SDS011;7983;50.744;7.086;2024-01-11T13:30:41;22.63;;;14.77;;
15764;SDS011;7983;50.744;7.086;2024-01-11T13:33:10;23.17;;;14.83;;
15764;SDS011;7983;50.744;7.086;2024-01-11T13:35:36;24.23;;;17.27;;
15764;SDS011;7983;50.744;7.086;2024-01-11T13:38:06;25.80;;;16.90;;
15764;SDS011;7983;50.744;7.086;2024-01-11T13:40:32;26.07;;;16.77;;
15764;SDS011;7983;50.744;7.086;2024-01-11T13:42:58;22.73;;;15.57;;
15764;SDS011;7983;50.744;7.086;2024-01-11T13:45:28;22.10;;;14.97;;
15764;SDS011;7983;50.744;7.086;2024-01-11T13:47:54;21.13;;;14.37;;
15764;SDS011;7983;50.744;7.086;2024-01-11T13:50:23;21.70;;;14.77;;
15764;SDS011;7983;50.744;7.086;2024-01-11T13:52:54;25.20;;;15.93;;
15764;SDS011;7983;50.744;7.086;2024-01-11T13:55:20;24.57;;;16.17;;
15764;SDS011;7983;50.744;7.086;2024-01-11T13:57:46;22.77;;;16.77;;
15764;SDS011;7983;50.744;7.086;2024-01-11T14:00:13;23.80;;;16.40;;
15764;SDS011;7983;50.744;7.086;2024-01-11T14:02:43;22.70;;;15.63;;
15764;SDS011;7983;50.744;7.086;2024-01-11T14:05:11;23.90;;;16.07;;
15764;SDS011;7983;50.744;7.086;2024-01-11T14:07:39;25.50;;;16.53;;
15764;SDS011;7983;50.744;7.086;2024-01-11T14:10:06;24.93;;;16.10;;
15764;SDS011;7983;50.744;7.086;2024-01-11T14:12:33;26.13;;;16.90;;
15764;SDS011;7983;50.744;7.086;2024-01-11T14:15:05;24.07;;;16.20;;
15764;SDS011;7983;50.744;7.086;2024-01-11T14:17:39;22.47;;;15.63;;
15764;SDS011;7983;50.744;7.086;2024-01-11T14:20:07;22.10;;;13.93;;
15764;SDS011;7983;50.744;7.086;2024-01-11T14:22:44;24.33;;;16.17;;
15764;SDS011;7983;50.744;7.086;2024-01-11T14:25:19;22.40;;;15.40;;
15764;SDS011;7983;50.744;7.086;2024-01-11T14:27:49;21.90;;;15.10;;
15764;SDS011;7983;50.744;7.086;2024-01-11T14:30:20;24.20;;;15.13;;
15764;SDS011;7983;50.744;7.086;2024-01-11T14:32:47;20.33;;;14.23;;
15764;SDS011;7983;50.744;7.086;2024-01-11T14:35:15;21.33;;;14.57;;
15764;SDS011;7983;50.744;7.086;2024-01-11T14:37:43;22.67;;;15.33;;
15764;SDS011;7983;50.744;7.086;2024-01-11T14:40:11;21.20;;;13.90;;
15764;SDS011;7983;50.744;7.086;2024-01-11T14:42:39;20.17;;;14.30;;
15764;SDS011;7983;50.744;7.086;2024-01-11T14:45:08;22.50;;;14.63;;
15764;SDS011;7983;50.744;7.086;2024-01-11T14:47:36;20.67;;;14.70;;
15764;SDS011;7983;50.744;7.086;2024-01-11T14:50:04;23.47;;;14.90;;
15764;SDS011;7983;50.744;7.086;2024-01-11T14:52:34;19.40;;;13.57;;
15764;SDS011;7983;50.744;7.086;2024-01-11T14:55:03;23.77;;;14.83;;
15764;SDS011;7983;50.744;7.086;2024-01-11T14:57:30;24.03;;;14.27;;
15764;SDS011;7983;50.744;7.086;2024-01-11T14:59:58;22.90;;;14.80;;
15764;SDS011;7983;50.744;7.086;2024-01-11T15:02:26;22.93;;;15.67;;
15764;SDS011;7983;50.744;7.086;2024-01-11T15:04:52;24.63;;;15.57;;